createdAt,value
2022-07-29T02:01:36.131Z,13.05
2022-07-29T02:01:56.739Z,13.05
2022-07-29T02:02:17.193Z,13.04
2022-07-29T02:02:37.802Z,13.07
2022-07-29T02:02:58.384Z,13.07
2022-07-29T02:03:18.959Z,13.07
2022-07-29T02:03:39.557Z,13.07
2022-07-29T02:04:00.140Z,13.05
2022-07-29T02:04:29.283Z,13.03
2022-07-29T02:04:41.142Z,13.04
2022-07-29T02:05:01.752Z,13.03
2022-07-29T02:05:22.462Z,13.01
2022-07-29T02:05:43.066Z,13.03
2022-07-29T02:06:03.463Z,13.00
2022-07-29T02:06:23.871Z,13.03
2022-07-29T02:06:44.458Z,13.00
2022-07-29T02:07:05.040Z,13.01
2022-07-29T02:07:25.618Z,13.00
2022-07-29T02:07:46.202Z,13.01
2022-07-29T02:08:06.783Z,13.03
2022-07-29T02:08:27.385Z,13.00
2022-07-29T02:08:47.970Z,13.00
2022-07-29T02:09:08.686Z,13.03
2022-07-29T02:09:29.223Z,13.01
2022-07-29T02:09:49.814Z,13.01
2022-07-29T02:10:10.398Z,13.01
2022-07-29T02:10:30.981Z,13.03
2022-07-29T02:10:51.564Z,13.01
2022-07-29T02:11:12.132Z,13.00
2022-07-29T02:11:32.713Z,13.01
2022-07-29T02:11:53.299Z,13.01
2022-07-29T02:12:13.882Z,13.03
2022-07-29T02:12:34.467Z,13.03
2022-07-29T02:12:55.051Z,13.04
2022-07-29T02:13:15.453Z,13.04
2022-07-29T02:13:36.047Z,13.04
2022-07-29T02:13:56.627Z,13.05
2022-07-29T02:14:17.656Z,13.04
2022-07-29T02:14:38.459Z,13.04
2022-07-29T02:14:59.047Z,13.03
2022-07-29T02:15:19.632Z,13.03
2022-07-29T02:15:40.258Z,13.03
2022-07-29T02:16:00.881Z,13.03
2022-07-29T02:16:28.231Z,13.01
2022-07-29T02:16:43.709Z,13.03
2022-07-29T02:17:04.126Z,13.03
2022-07-29T02:17:24.690Z,13.04
2022-07-29T02:17:45.278Z,13.03
2022-07-29T02:18:05.857Z,13.05
2022-07-29T02:18:26.455Z,13.04
2022-07-29T02:18:47.036Z,13.03
2022-07-29T02:19:07.621Z,13.04
2022-07-29T02:19:28.194Z,13.03
2022-07-29T02:19:48.591Z,13.04
2022-07-29T02:20:09.173Z,13.03
2022-07-29T02:20:29.566Z,13.03
2022-07-29T02:20:50.146Z,13.03
2022-07-29T02:21:15.039Z,13.04
2022-07-29T02:21:30.943Z,13.03
2022-07-29T02:21:51.529Z,13.05
2022-07-29T02:22:12.110Z,13.03
2022-07-29T02:22:32.700Z,13.04
2022-07-29T02:22:53.272Z,13.03
2022-07-29T02:23:13.853Z,13.03
2022-07-29T02:23:50.740Z,13.03
2022-07-29T02:23:54.855Z,13.03
2022-07-29T02:24:15.987Z,13.05
2022-07-29T02:24:36.757Z,13.04
2022-07-29T02:24:57.349Z,13.04
2022-07-29T02:25:17.929Z,13.04
2022-07-29T02:25:38.572Z,13.04
2022-07-29T02:25:59.114Z,13.04
2022-07-29T02:26:19.690Z,13.03
2022-07-29T02:26:40.273Z,13.04
2022-07-29T02:27:00.856Z,13.04
2022-07-29T02:27:21.432Z,13.04
2022-07-29T02:27:42.428Z,13.03
2022-07-29T02:28:03.007Z,13.04
2022-07-29T02:28:23.587Z,13.04
2022-07-29T02:28:43.997Z,13.03
2022-07-29T02:29:04.582Z,13.01
2022-07-29T02:29:25.172Z,13.05
2022-07-29T02:29:45.564Z,13.03
2022-07-29T02:30:06.149Z,13.03
2022-07-29T02:30:26.730Z,13.04
2022-07-29T02:30:47.384Z,13.03
2022-07-29T02:31:08.404Z,13.01
2022-07-29T02:31:28.832Z,13.03
2022-07-29T02:31:49.425Z,13.03
2022-07-29T02:32:10.010Z,13.03
2022-07-29T02:32:30.595Z,13.01
2022-07-29T02:32:51.183Z,13.00
2022-07-29T02:33:11.761Z,13.01
2022-07-29T02:33:32.173Z,13.00
2022-07-29T02:33:52.750Z,13.01
2022-07-29T02:34:13.798Z,13.01
2022-07-29T02:34:33.749Z,13.01
2022-07-29T02:34:54.329Z,13.00
2022-07-29T02:35:14.909Z,12.97
2022-07-29T02:35:35.500Z,13.00
2022-07-29T02:35:56.319Z,13.01
2022-07-29T02:36:16.699Z,13.00
2022-07-29T02:36:37.280Z,13.00
2022-07-29T02:36:57.866Z,13.00
2022-07-29T02:37:18.449Z,13.00
2022-07-29T02:37:39.039Z,13.00
2022-07-29T02:37:59.622Z,13.00
2022-07-29T02:38:20.209Z,13.01
2022-07-29T02:38:40.807Z,13.03
2022-07-29T02:39:01.402Z,13.01
2022-07-29T02:39:21.978Z,13.04
2022-07-29T02:39:42.557Z,13.03
2022-07-29T02:40:03.142Z,13.03
2022-07-29T02:40:23.727Z,13.04
2022-07-29T02:40:44.308Z,13.07
2022-07-29T02:41:04.883Z,13.07
2022-07-29T02:41:25.466Z,13.07
2022-07-29T02:41:46.053Z,13.05
2022-07-29T02:42:06.634Z,13.07
2022-07-29T02:42:27.214Z,13.07
2022-07-29T02:42:47.796Z,13.07
2022-07-29T02:43:08.382Z,13.10
2022-07-29T02:43:28.965Z,13.10
2022-07-29T02:43:49.564Z,13.10
2022-07-29T02:44:10.147Z,13.10
2022-07-29T02:44:34.530Z,13.11
2022-07-29T02:44:55.450Z,13.10
2022-07-29T02:45:16.033Z,13.10
2022-07-29T02:45:36.429Z,13.07
2022-07-29T02:45:57.163Z,13.08
2022-07-29T02:46:29.079Z,13.07
2022-07-29T02:46:38.246Z,13.05
2022-07-29T02:46:58.870Z,13.05
2022-07-29T02:47:19.420Z,13.05
2022-07-29T02:47:41.735Z,13.03
2022-07-29T02:48:02.534Z,13.03
2022-07-29T02:48:23.115Z,13.03
2022-07-29T02:48:43.787Z,13.03
2022-07-29T02:49:04.280Z,13.03
2022-07-29T02:49:24.975Z,13.00
2022-07-29T02:49:45.540Z,13.00
2022-07-29T02:50:06.127Z,12.97
2022-07-29T02:50:26.716Z,12.96
2022-07-29T02:50:47.297Z,12.96
2022-07-29T02:51:07.878Z,12.95
2022-07-29T02:51:43.588Z,12.95
2022-07-29T02:51:48.863Z,12.97
2022-07-29T02:52:09.449Z,12.95
2022-07-29T02:52:30.033Z,12.95
2022-07-29T02:52:50.616Z,12.95
2022-07-29T02:53:11.198Z,12.95
2022-07-29T02:53:31.780Z,12.93
2022-07-29T02:53:52.190Z,12.93
2022-07-29T02:54:13.290Z,12.93
2022-07-29T02:54:34.079Z,12.95
2022-07-29T02:54:54.660Z,12.93
2022-07-29T02:55:15.239Z,12.92
2022-07-29T02:55:35.824Z,12.90
2022-07-29T02:55:56.401Z,12.93
2022-07-29T02:56:16.985Z,12.93
2022-07-29T02:56:37.566Z,12.92
2022-07-29T02:56:58.149Z,12.93
2022-07-29T02:57:18.539Z,12.95
2022-07-29T02:57:55.478Z,12.96
2022-07-29T02:57:59.535Z,12.95
2022-07-29T02:58:20.119Z,12.93
2022-07-29T02:58:40.713Z,12.93
2022-07-29T02:59:01.295Z,12.95
2022-07-29T02:59:21.911Z,12.93
2022-07-29T02:59:42.519Z,12.93
2022-07-29T03:00:03.098Z,12.93
2022-07-29T03:00:23.676Z,12.92
2022-07-29T03:00:44.267Z,12.92
2022-07-29T03:01:04.853Z,12.92
2022-07-29T03:01:25.344Z,12.90
2022-07-29T03:01:46.015Z,12.92
2022-07-29T03:02:06.753Z,12.90
2022-07-29T03:02:27.370Z,12.90
2022-07-29T03:02:47.950Z,12.92
2022-07-29T03:03:08.527Z,12.92
2022-07-29T03:03:29.112Z,12.90
2022-07-29T03:03:49.712Z,12.90
2022-07-29T03:04:10.294Z,12.90
2022-07-29T03:04:30.904Z,12.89
2022-07-29T03:04:51.524Z,12.90
2022-07-29T03:05:12.160Z,12.89
2022-07-29T03:05:32.739Z,12.90
2022-07-29T03:05:53.321Z,12.90
2022-07-29T03:06:28.018Z,12.89
2022-07-29T03:06:38.356Z,12.90
2022-07-29T03:06:54.434Z,12.87
2022-07-29T03:07:15.020Z,12.89
2022-07-29T03:07:35.609Z,12.89
2022-07-29T03:07:56.005Z,12.89
2022-07-29T03:08:16.584Z,12.87
2022-07-29T03:08:37.005Z,12.86
2022-07-29T03:08:57.588Z,12.89
2022-07-29T03:09:18.172Z,12.90
2022-07-29T03:09:38.758Z,12.89
2022-07-29T03:09:59.350Z,12.87
2022-07-29T03:10:19.939Z,12.87
2022-07-29T03:10:40.518Z,12.87
2022-07-29T03:11:01.097Z,12.89
2022-07-29T03:11:21.688Z,12.87
2022-07-29T03:11:50.128Z,12.90
2022-07-29T03:12:02.502Z,12.92
2022-07-29T03:12:23.109Z,12.92
2022-07-29T03:12:43.688Z,12.90
2022-07-29T03:13:04.271Z,12.92
2022-07-29T03:13:24.854Z,12.93
2022-07-29T03:13:45.452Z,12.92
2022-07-29T03:14:06.029Z,12.93
2022-07-29T03:14:26.619Z,12.93
2022-07-29T03:14:47.193Z,12.95
2022-07-29T03:15:07.773Z,12.95
2022-07-29T03:15:28.355Z,12.97
2022-07-29T03:15:49.055Z,12.96
2022-07-29T03:16:09.801Z,12.95
2022-07-29T03:16:30.439Z,12.95
2022-07-29T03:16:51.003Z,12.96
2022-07-29T03:17:11.597Z,12.96
2022-07-29T03:17:32.185Z,13.00
2022-07-29T03:17:53.216Z,12.97
2022-07-29T03:18:13.800Z,13.00
2022-07-29T03:18:34.380Z,13.00
2022-07-29T03:18:54.981Z,13.00
2022-07-29T03:19:15.569Z,13.01
2022-07-29T03:19:36.161Z,13.03
2022-07-29T03:19:56.733Z,13.01
2022-07-29T03:20:17.316Z,13.01
2022-07-29T03:20:37.899Z,13.01
2022-07-29T03:20:58.479Z,13.01
2022-07-29T03:21:19.066Z,13.00
2022-07-29T03:21:39.650Z,13.01
2022-07-29T03:22:00.232Z,13.01
2022-07-29T03:22:20.817Z,13.00
2022-07-29T03:22:41.395Z,13.01
2022-07-29T03:23:01.980Z,13.01
2022-07-29T03:23:22.560Z,13.00
2022-07-29T03:23:42.966Z,13.00
2022-07-29T03:24:08.283Z,13.01
2022-07-29T03:24:23.956Z,13.00
2022-07-29T03:24:44.539Z,13.01
2022-07-29T03:25:07.863Z,13.03
2022-07-29T03:25:28.448Z,13.00
2022-07-29T03:25:49.027Z,13.01
2022-07-29T03:26:09.422Z,13.03
2022-07-29T03:26:29.817Z,13.03
2022-07-29T03:26:50.401Z,13.04
2022-07-29T03:27:10.987Z,13.03
2022-07-29T03:27:31.564Z,13.04
2022-07-29T03:27:52.149Z,13.04
2022-07-29T03:28:12.736Z,13.04
2022-07-29T03:28:33.329Z,13.05
2022-07-29T03:28:53.740Z,13.07
2022-07-29T03:29:14.480Z,13.04
2022-07-29T03:29:35.393Z,13.07
2022-07-29T03:29:56.285Z,13.05
2022-07-29T03:30:21.961Z,13.07
2022-07-29T03:30:37.082Z,13.07
2022-07-29T03:30:59.395Z,13.07
2022-07-29T03:31:20.552Z,13.07
2022-07-29T03:31:41.387Z,13.07
2022-07-29T03:32:02.736Z,13.07
2022-07-29T03:32:23.828Z,13.08
2022-07-29T03:32:45.829Z,13.08
2022-07-29T03:33:10.192Z,13.07
2022-07-29T03:33:26.800Z,13.07
2022-07-29T03:33:47.395Z,13.08
2022-07-29T03:34:07.795Z,13.10
2022-07-29T03:34:28.381Z,13.11
2022-07-29T03:34:48.964Z,13.11
2022-07-29T03:35:09.548Z,13.08
2022-07-29T03:35:30.131Z,13.11
2022-07-29T03:35:50.709Z,13.11
2022-07-29T03:36:11.107Z,13.10
2022-07-29T03:36:31.686Z,13.10
2022-07-29T03:36:52.269Z,13.10
2022-07-29T03:37:12.855Z,13.10
2022-07-29T03:37:33.438Z,13.11
2022-07-29T03:37:54.023Z,13.10
2022-07-29T03:38:14.602Z,13.10
2022-07-29T03:38:35.200Z,13.11
2022-07-29T03:38:55.790Z,13.14
2022-07-29T03:39:16.364Z,13.14
2022-07-29T03:39:36.945Z,13.15
2022-07-29T03:39:57.526Z,13.14
2022-07-29T03:40:17.925Z,13.15
2022-07-29T03:40:38.323Z,13.15
2022-07-29T03:40:58.902Z,13.15
2022-07-29T03:41:19.300Z,13.15
2022-07-29T03:41:43.192Z,13.15
2022-07-29T03:42:03.781Z,13.17
2022-07-29T03:42:24.363Z,13.17
2022-07-29T03:42:44.949Z,13.17
2022-07-29T03:43:05.537Z,13.17
2022-07-29T03:43:26.118Z,13.17
2022-07-29T03:43:49.440Z,13.15
2022-07-29T03:44:10.472Z,13.15
2022-07-29T03:44:30.868Z,13.15
2022-07-29T03:44:51.449Z,13.15
2022-07-29T03:45:12.043Z,13.17
2022-07-29T03:45:32.612Z,13.15
2022-07-29T03:45:53.287Z,13.14
2022-07-29T03:46:13.871Z,13.17
2022-07-29T03:46:34.563Z,13.14
2022-07-29T03:46:55.159Z,13.14
2022-07-29T03:47:15.741Z,13.15
2022-07-29T03:47:50.212Z,13.14
2022-07-29T03:48:00.548Z,13.15
2022-07-29T03:48:21.756Z,13.19
2022-07-29T03:48:42.221Z,13.19
2022-07-29T03:49:02.852Z,13.19
2022-07-29T03:49:23.467Z,13.19
2022-07-29T03:49:44.045Z,13.20
2022-07-29T03:50:04.626Z,13.22
2022-07-29T03:50:25.208Z,13.22
2022-07-29T03:50:45.790Z,13.22
2022-07-29T03:51:06.372Z,13.22
2022-07-29T03:51:33.916Z,13.22
2022-07-29T03:51:48.259Z,13.23
2022-07-29T03:52:08.845Z,13.23
2022-07-29T03:52:29.426Z,13.25
2022-07-29T03:52:50.014Z,13.23
2022-07-29T03:53:10.588Z,13.22
2022-07-29T03:53:31.176Z,13.26
2022-07-29T03:53:51.771Z,13.26
2022-07-29T03:54:12.347Z,13.25
2022-07-29T03:54:32.935Z,13.26
2022-07-29T03:54:53.517Z,13.26
2022-07-29T03:55:14.103Z,13.28
2022-07-29T03:55:34.682Z,13.28
2022-07-29T03:55:55.273Z,13.28
2022-07-29T03:56:15.847Z,13.28
2022-07-29T03:56:36.426Z,13.28
2022-07-29T03:56:57.012Z,13.29
2022-07-29T03:57:17.588Z,13.29
2022-07-29T03:57:38.176Z,13.30
2022-07-29T03:57:58.759Z,13.32
2022-07-29T03:58:19.359Z,13.32
2022-07-29T03:58:39.964Z,13.33
2022-07-29T03:59:00.557Z,13.33
2022-07-29T03:59:21.143Z,13.33
2022-07-29T03:59:41.720Z,13.36
2022-07-29T04:00:02.305Z,13.36
2022-07-29T04:00:22.886Z,13.32
2022-07-29T04:00:43.477Z,13.36
2022-07-29T04:01:04.058Z,13.33
2022-07-29T04:01:24.705Z,13.36
2022-07-29T04:01:45.417Z,13.36
2022-07-29T04:02:06.112Z,13.38
2022-07-29T04:02:30.500Z,13.38
2022-07-29T04:02:51.295Z,13.38
2022-07-29T04:03:12.049Z,13.36
2022-07-29T04:03:33.164Z,13.36
2022-07-29T04:03:53.839Z,13.36
2022-07-29T04:04:14.817Z,13.36
2022-07-29T04:04:35.546Z,13.36
2022-07-29T04:04:56.127Z,13.36
2022-07-29T04:05:16.714Z,13.36
2022-07-29T04:05:37.302Z,13.33
2022-07-29T04:05:57.877Z,13.36
2022-07-29T04:06:18.460Z,13.38
2022-07-29T04:06:39.044Z,13.36
2022-07-29T04:06:59.629Z,13.36
2022-07-29T04:07:20.231Z,13.36
2022-07-29T04:07:40.832Z,13.36
2022-07-29T04:08:01.424Z,13.36
2022-07-29T04:08:21.997Z,13.38
2022-07-29T04:08:42.596Z,13.36
2022-07-29T04:09:03.177Z,13.41
2022-07-29T04:09:23.764Z,13.39
2022-07-29T04:09:44.340Z,13.39
2022-07-29T04:10:04.935Z,13.42
2022-07-29T04:10:32.078Z,13.41
2022-07-29T04:10:45.921Z,13.42
2022-07-29T04:11:06.506Z,13.42
2022-07-29T04:11:27.089Z,13.41
2022-07-29T04:12:01.447Z,13.41
2022-07-29T04:12:08.071Z,13.42
2022-07-29T04:12:28.652Z,13.41
2022-07-29T04:12:49.238Z,13.41
2022-07-29T04:13:09.817Z,13.44
2022-07-29T04:13:30.401Z,13.44
2022-07-29T04:13:50.998Z,13.42
2022-07-29T04:14:11.584Z,13.44
2022-07-29T04:14:32.171Z,13.44
2022-07-29T04:14:52.756Z,13.44
2022-07-29T04:15:13.330Z,13.46
2022-07-29T04:15:33.987Z,13.48
2022-07-29T04:15:54.645Z,13.45
2022-07-29T04:16:15.320Z,13.48
2022-07-29T04:16:35.942Z,13.48
2022-07-29T04:16:56.337Z,13.49
2022-07-29T04:17:16.921Z,13.48
2022-07-29T04:17:37.503Z,13.48
2022-07-29T04:17:57.895Z,13.48
2022-07-29T04:18:18.476Z,13.46
2022-07-29T04:18:39.068Z,13.49
2022-07-29T04:19:00.662Z,13.48
2022-07-29T04:19:21.271Z,13.48
2022-07-29T04:19:41.835Z,13.46
2022-07-29T04:20:02.410Z,13.48
2022-07-29T04:20:23.004Z,13.46
2022-07-29T04:20:43.584Z,13.48
2022-07-29T04:21:04.173Z,13.48
2022-07-29T04:21:24.754Z,13.48
2022-07-29T04:21:45.348Z,13.51
2022-07-29T04:22:05.936Z,13.51
2022-07-29T04:22:26.516Z,13.49
2022-07-29T04:22:47.988Z,13.49
2022-07-29T04:23:08.575Z,13.48
2022-07-29T04:23:28.964Z,13.51
2022-07-29T04:23:53.859Z,13.51
2022-07-29T04:24:09.554Z,13.54
2022-07-29T04:24:30.146Z,13.52
2022-07-29T04:24:50.716Z,13.52
2022-07-29T04:25:11.301Z,13.54
2022-07-29T04:25:31.886Z,13.52
2022-07-29T04:25:52.469Z,13.52
2022-07-29T04:26:13.051Z,13.52
2022-07-29T04:26:33.631Z,13.52
2022-07-29T04:26:54.215Z,13.51
2022-07-29T04:27:14.816Z,13.52
2022-07-29T04:27:35.394Z,13.52
2022-07-29T04:27:55.981Z,13.54
2022-07-29T04:28:16.372Z,13.55
2022-07-29T04:28:37.667Z,13.52
2022-07-29T04:28:58.249Z,13.54
2022-07-29T04:29:18.832Z,13.54
2022-07-29T04:29:55.973Z,13.54
2022-07-29T04:29:59.819Z,13.55
2022-07-29T04:30:20.403Z,13.55
2022-07-29T04:30:41.022Z,13.55
2022-07-29T04:31:01.666Z,13.54
2022-07-29T04:31:25.741Z,13.55
2022-07-29T04:31:46.714Z,13.57
2022-07-29T04:32:07.281Z,13.59
2022-07-29T04:32:27.681Z,13.57
2022-07-29T04:32:48.076Z,13.59
2022-07-29T04:33:08.654Z,13.60
2022-07-29T04:33:29.243Z,13.59
2022-07-29T04:33:49.650Z,13.60
2022-07-29T04:34:10.228Z,13.60
2022-07-29T04:34:30.629Z,13.59
2022-07-29T04:34:51.217Z,13.59
2022-07-29T04:35:11.801Z,13.60
2022-07-29T04:35:38.156Z,13.60
2022-07-29T04:35:54.939Z,13.60
2022-07-29T04:36:29.075Z,13.63
2022-07-29T04:36:36.044Z,13.63
2022-07-29T04:36:56.447Z,13.63
2022-07-29T04:37:17.029Z,13.64
2022-07-29T04:37:37.609Z,13.62
2022-07-29T04:37:58.191Z,13.63
2022-07-29T04:38:18.586Z,13.63
2022-07-29T04:38:39.181Z,13.63
2022-07-29T04:38:59.762Z,13.64
2022-07-29T04:39:23.033Z,13.63
2022-07-29T04:39:40.748Z,13.64
2022-07-29T04:40:01.330Z,13.64
2022-07-29T04:40:21.912Z,13.64
2022-07-29T04:40:42.496Z,13.64
2022-07-29T04:41:03.078Z,13.66
2022-07-29T04:41:23.771Z,13.64
2022-07-29T04:41:44.175Z,13.66
2022-07-29T04:42:04.568Z,13.66
2022-07-29T04:42:29.417Z,13.69
2022-07-29T04:42:50.316Z,13.69
2022-07-29T04:43:10.899Z,13.69
2022-07-29T04:43:34.109Z,13.70
2022-07-29T04:43:57.392Z,13.69
2022-07-29T04:44:18.485Z,13.69
2022-07-29T04:44:39.829Z,13.69
2022-07-29T04:45:03.732Z,13.70
2022-07-29T04:45:28.158Z,13.70
2022-07-29T04:45:48.740Z,13.71
2022-07-29T04:46:09.394Z,13.71
2022-07-29T04:46:30.061Z,13.73
2022-07-29T04:46:50.546Z,13.73
2022-07-29T04:47:11.157Z,13.75
2022-07-29T04:47:31.742Z,13.73
2022-07-29T04:47:52.313Z,13.73
2022-07-29T04:48:12.897Z,13.75
2022-07-29T04:48:33.477Z,13.73
2022-07-29T04:48:54.152Z,13.73
2022-07-29T04:49:14.747Z,13.71
2022-07-29T04:49:35.299Z,13.73
2022-07-29T04:49:55.877Z,13.73
2022-07-29T04:50:16.464Z,13.73
2022-07-29T04:50:37.052Z,13.77
2022-07-29T04:50:57.637Z,13.71
2022-07-29T04:51:18.219Z,13.73
2022-07-29T04:51:38.803Z,13.73
2022-07-29T04:51:59.390Z,13.73
2022-07-29T04:52:19.977Z,13.77
2022-07-29T04:52:40.559Z,13.77
2022-07-29T04:53:01.140Z,13.73
2022-07-29T04:53:21.721Z,13.73
2022-07-29T04:53:42.318Z,13.73
2022-07-29T04:54:02.899Z,13.73
2022-07-29T04:54:23.485Z,13.73
2022-07-29T04:54:45.308Z,13.75
2022-07-29T04:55:05.892Z,13.77
2022-07-29T04:55:26.496Z,13.77
2022-07-29T04:55:47.051Z,13.77
2022-07-29T04:56:07.639Z,13.77
2022-07-29T04:56:28.232Z,13.78
2022-07-29T04:56:48.800Z,13.77
2022-07-29T04:57:09.457Z,13.77
2022-07-29T04:57:30.042Z,13.77
2022-07-29T04:57:50.630Z,13.77
2022-07-29T04:58:11.210Z,13.77
2022-07-29T04:58:31.779Z,13.77
2022-07-29T04:58:52.375Z,13.78
2022-07-29T04:59:13.271Z,13.77
2022-07-29T04:59:33.847Z,13.78
2022-07-29T04:59:54.431Z,13.79
2022-07-29T05:00:15.016Z,13.78
2022-07-29T05:00:35.600Z,13.79
2022-07-29T05:00:56.179Z,13.79
2022-07-29T05:01:16.637Z,13.79
2022-07-29T05:01:37.270Z,13.81
2022-07-29T05:01:57.898Z,13.81
2022-07-29T05:02:18.536Z,13.79
2022-07-29T05:02:39.195Z,13.79
2022-07-29T05:02:59.915Z,13.82
2022-07-29T05:03:20.491Z,13.79
2022-07-29T05:03:41.089Z,13.81
2022-07-29T05:04:01.673Z,13.81
2022-07-29T05:04:22.084Z,13.82
2022-07-29T05:04:42.652Z,13.82
2022-07-29T05:05:03.233Z,13.84
2022-07-29T05:05:23.816Z,13.82
2022-07-29T05:05:44.209Z,13.84
2022-07-29T05:06:04.791Z,13.82
2022-07-29T05:06:25.374Z,13.85
2022-07-29T05:06:45.959Z,13.82
2022-07-29T05:07:06.544Z,13.84
2022-07-29T05:07:27.129Z,13.85
2022-07-29T05:07:47.708Z,13.87
2022-07-29T05:08:08.291Z,13.88
2022-07-29T05:08:28.876Z,13.88
2022-07-29T05:08:49.474Z,13.88
2022-07-29T05:09:10.070Z,13.89
2022-07-29T05:09:30.653Z,13.88
2022-07-29T05:09:51.230Z,13.89
2022-07-29T05:10:11.813Z,13.89
2022-07-29T05:10:32.396Z,13.89
2022-07-29T05:10:52.977Z,13.89
2022-07-29T05:11:15.923Z,13.91
2022-07-29T05:11:33.962Z,13.88
2022-07-29T05:11:54.552Z,13.91
2022-07-29T05:12:15.134Z,13.92
2022-07-29T05:12:35.716Z,13.89
2022-07-29T05:12:56.301Z,13.92
2022-07-29T05:13:16.881Z,13.92
2022-07-29T05:13:45.475Z,13.92
2022-07-29T05:13:57.872Z,13.95
2022-07-29T05:14:18.777Z,13.95
2022-07-29T05:14:39.587Z,13.95
2022-07-29T05:15:00.177Z,13.96
2022-07-29T05:15:20.761Z,13.99
2022-07-29T05:15:41.373Z,14.00
2022-07-29T05:16:01.990Z,14.00
2022-07-29T05:16:22.621Z,14.03
2022-07-29T05:16:43.234Z,14.03
2022-07-29T05:17:03.832Z,14.02
2022-07-29T05:17:24.696Z,14.02
2022-07-29T05:17:45.251Z,14.03
2022-07-29T05:18:05.829Z,14.06
2022-07-29T05:18:26.433Z,14.06
2022-07-29T05:18:47.011Z,14.06
2022-07-29T05:19:10.929Z,14.06
2022-07-29T05:19:27.989Z,14.10
2022-07-29T05:19:48.571Z,14.09
2022-07-29T05:20:09.153Z,14.10
2022-07-29T05:20:29.738Z,14.12
2022-07-29T05:20:50.141Z,14.12
2022-07-29T05:21:11.158Z,14.10
2022-07-29T05:21:31.739Z,14.15
2022-07-29T05:21:52.321Z,14.15
2022-07-29T05:22:12.910Z,14.17
2022-07-29T05:22:33.492Z,14.18
2022-07-29T05:22:54.085Z,14.18
2022-07-29T05:23:14.670Z,14.17
2022-07-29T05:23:35.085Z,14.18
2022-07-29T05:23:55.475Z,14.20
2022-07-29T05:24:16.466Z,14.21
2022-07-29T05:24:37.409Z,14.22
2022-07-29T05:24:58.002Z,14.22
2022-07-29T05:25:18.597Z,14.24
2022-07-29T05:25:43.520Z,14.25
2022-07-29T05:25:59.603Z,14.27
2022-07-29T05:26:20.186Z,14.27
2022-07-29T05:26:40.767Z,14.28
2022-07-29T05:27:01.349Z,14.29
2022-07-29T05:27:21.926Z,14.29
2022-07-29T05:27:42.510Z,14.33
2022-07-29T05:28:02.911Z,14.35
2022-07-29T05:28:23.507Z,14.36
2022-07-29T05:28:44.091Z,14.40
2022-07-29T05:29:04.675Z,14.40
2022-07-29T05:29:43.640Z,14.43
2022-07-29T05:29:46.046Z,14.42
2022-07-29T05:30:06.605Z,14.43
2022-07-29T05:30:27.190Z,14.46
2022-07-29T05:30:47.845Z,14.50
2022-07-29T05:31:08.456Z,14.52
2022-07-29T05:31:29.065Z,14.52
2022-07-29T05:31:49.424Z,14.55
2022-07-29T05:32:10.007Z,14.55
2022-07-29T05:32:30.597Z,14.57
2022-07-29T05:32:51.176Z,14.60
2022-07-29T05:33:35.002Z,14.64
2022-07-29T05:33:35.021Z,14.61
2022-07-29T05:33:56.847Z,14.65
2022-07-29T05:34:17.772Z,14.69
2022-07-29T05:34:38.617Z,14.72
2022-07-29T05:34:59.013Z,14.72
2022-07-29T05:35:19.610Z,14.73
2022-07-29T05:35:40.192Z,14.77
2022-07-29T05:36:01.279Z,14.80
2022-07-29T05:36:21.864Z,14.81
2022-07-29T05:36:42.446Z,14.83
2022-07-29T05:37:03.041Z,14.83
2022-07-29T05:37:23.617Z,14.84
2022-07-29T05:37:44.200Z,14.84
2022-07-29T05:38:04.778Z,14.86
2022-07-29T05:38:25.366Z,14.86
2022-07-29T05:38:45.963Z,14.86
2022-07-29T05:39:06.547Z,14.88
2022-07-29T05:39:48.514Z,14.91
2022-07-29T05:39:50.388Z,14.91
2022-07-29T05:40:07.945Z,14.92
2022-07-29T05:40:28.533Z,14.94
2022-07-29T05:40:48.929Z,14.94
2022-07-29T05:41:09.512Z,14.96
2022-07-29T05:41:30.094Z,14.98
2022-07-29T05:41:52.068Z,14.99
2022-07-29T05:42:12.771Z,14.99
2022-07-29T05:42:33.354Z,15.01
2022-07-29T05:42:53.934Z,15.02
2022-07-29T05:43:14.524Z,15.02
2022-07-29T05:43:35.114Z,15.03
2022-07-29T05:43:55.696Z,15.07
2022-07-29T05:44:16.736Z,15.06
2022-07-29T05:44:37.648Z,15.10
2022-07-29T05:44:58.234Z,15.09
2022-07-29T05:45:18.825Z,15.11
2022-07-29T05:45:49.710Z,15.13
2022-07-29T05:45:59.912Z,15.11
2022-07-29T05:46:20.613Z,15.14
2022-07-29T05:46:41.255Z,15.14
2022-07-29T05:47:02.155Z,15.14
2022-07-29T05:47:22.733Z,15.16
2022-07-29T05:47:43.312Z,15.16
2022-07-29T05:48:03.894Z,15.17
2022-07-29T05:48:24.481Z,15.20
2022-07-29T05:48:45.135Z,15.21
2022-07-29T05:49:05.795Z,15.21
2022-07-29T05:49:27.221Z,15.21
2022-07-29T05:49:46.782Z,15.21
2022-07-29T05:50:07.362Z,15.25
2022-07-29T05:50:27.947Z,15.25
2022-07-29T05:50:48.530Z,15.27
2022-07-29T05:51:09.111Z,15.28
2022-07-29T05:51:29.694Z,15.29
2022-07-29T05:51:50.277Z,15.28
2022-07-29T05:52:10.855Z,15.29
2022-07-29T05:52:31.441Z,15.28
2022-07-29T05:52:52.029Z,15.29
2022-07-29T05:53:19.723Z,15.32
2022-07-29T05:53:33.011Z,15.34
2022-07-29T05:53:53.612Z,15.32
2022-07-29T05:54:14.498Z,15.34
2022-07-29T05:54:35.212Z,15.34
2022-07-29T05:54:55.796Z,15.35
2022-07-29T05:55:16.383Z,15.38
2022-07-29T05:55:36.972Z,15.39
2022-07-29T05:55:59.370Z,15.41
2022-07-29T05:56:19.957Z,15.41
2022-07-29T05:56:40.536Z,15.41
2022-07-29T05:57:01.128Z,15.43
2022-07-29T05:57:21.708Z,15.46
2022-07-29T05:57:42.291Z,15.44
2022-07-29T05:58:02.872Z,15.46
2022-07-29T05:58:23.453Z,15.46
2022-07-29T05:58:44.047Z,15.47
2022-07-29T05:59:04.648Z,15.47
2022-07-29T05:59:30.087Z,15.49
2022-07-29T05:59:45.460Z,15.49
2022-07-29T06:00:06.051Z,15.50
2022-07-29T06:00:26.624Z,15.50
2022-07-29T06:00:50.043Z,15.51
2022-07-29T06:01:10.666Z,15.54
2022-07-29T06:01:31.280Z,15.54
2022-07-29T06:01:51.688Z,15.56
2022-07-29T06:02:12.286Z,15.57
2022-07-29T06:02:32.870Z,15.54
2022-07-29T06:02:53.454Z,15.54
2022-07-29T06:03:14.037Z,15.54
2022-07-29T06:03:34.621Z,15.57
2022-07-29T06:03:55.128Z,15.59
2022-07-29T06:04:15.900Z,15.59
2022-07-29T06:04:36.715Z,15.60
2022-07-29T06:04:57.382Z,15.60
2022-07-29T06:05:17.996Z,15.65
2022-07-29T06:05:38.571Z,15.65
2022-07-29T06:05:59.159Z,15.65
2022-07-29T06:06:19.738Z,15.67
2022-07-29T06:06:40.324Z,15.67
2022-07-29T06:07:00.911Z,15.68
2022-07-29T06:07:21.509Z,15.68
2022-07-29T06:07:42.069Z,15.68
2022-07-29T06:08:02.486Z,15.69
2022-07-29T06:08:23.061Z,15.71
2022-07-29T06:08:43.660Z,15.71
2022-07-29T06:09:12.567Z,15.74
2022-07-29T06:09:24.662Z,15.75
2022-07-29T06:09:45.245Z,15.72
2022-07-29T06:10:05.826Z,15.74
2022-07-29T06:10:26.984Z,15.75
2022-07-29T06:10:47.718Z,15.78
2022-07-29T06:11:08.112Z,15.76
2022-07-29T06:11:28.692Z,15.78
2022-07-29T06:11:49.281Z,15.82
2022-07-29T06:12:09.861Z,15.80
2022-07-29T06:12:30.445Z,15.82
2022-07-29T06:12:51.028Z,15.84
2022-07-29T06:13:11.615Z,15.86
2022-07-29T06:13:32.192Z,15.86
2022-07-29T06:13:52.598Z,15.90
2022-07-29T06:14:13.469Z,15.90
2022-07-29T06:14:34.213Z,15.87
2022-07-29T06:14:54.798Z,15.92
2022-07-29T06:15:15.380Z,15.92
2022-07-29T06:15:35.981Z,15.94
2022-07-29T06:15:56.595Z,15.94
2022-07-29T06:16:29.878Z,15.96
2022-07-29T06:16:37.618Z,16.00
2022-07-29T06:16:58.182Z,15.97
2022-07-29T06:17:18.765Z,16.00
2022-07-29T06:17:39.343Z,16.00
2022-07-29T06:18:01.682Z,16.01
2022-07-29T06:18:20.142Z,16.02
2022-07-29T06:18:40.742Z,16.02
2022-07-29T06:19:01.338Z,16.04
2022-07-29T06:19:21.911Z,16.05
2022-07-29T06:19:42.494Z,16.07
2022-07-29T06:20:03.081Z,16.08
2022-07-29T06:20:27.112Z,16.07
2022-07-29T06:20:47.928Z,16.09
2022-07-29T06:21:08.514Z,16.11
2022-07-29T06:21:29.093Z,16.12
2022-07-29T06:21:49.679Z,16.11
2022-07-29T06:22:10.257Z,16.14
2022-07-29T06:22:30.841Z,16.15
2022-07-29T06:22:51.422Z,16.14
2022-07-29T06:23:12.106Z,16.15
2022-07-29T06:23:32.680Z,16.17
2022-07-29T06:23:53.279Z,16.17
2022-07-29T06:24:14.113Z,16.17
2022-07-29T06:24:34.825Z,16.21
2022-07-29T06:24:55.406Z,16.20
2022-07-29T06:25:15.805Z,16.24
2022-07-29T06:25:36.388Z,16.24
2022-07-29T06:25:56.975Z,16.25
2022-07-29T06:26:17.551Z,16.25
2022-07-29T06:26:39.990Z,16.24
2022-07-29T06:27:00.674Z,16.27
2022-07-29T06:27:21.058Z,16.28
2022-07-29T06:27:41.450Z,16.28